sensor_id;sensor_type;location;lat;lon;timestamp;temperature;humidity
58951;DHT22;44730;53.158;6.398;2022-09-09T00:00:14;14.20;99.90
58951;DHT22;44730;53.158;6.398;2022-09-09T00:02:45;14.10;99.90
58951;DHT22;44730;53.158;6.398;2022-09-09T00:05:44;14.10;99.90
58951;DHT22;44730;53.158;6.398;2022-09-09T00:08:19;14.10;99.90
58951;DHT22;44730;53.158;6.398;2022-09-09T00:10:51;14.10;99.90
58951;DHT22;44730;53.158;6.398;2022-09-09T00:13:22;14.00;99.90
58951;DHT22;44730;53.158;6.398;2022-09-09T00:16:02;14.00;99.90
58951;DHT22;44730;53.158;6.398;2022-09-09T00:18:44;14.00;99.90
58951;DHT22;44730;53.158;6.398;2022-09-09T00:21:14;13.90;99.90
58951;DHT22;44730;53.158;6.398;2022-09-09T00:23:50;13.90;99.90
58951;DHT22;44730;53.158;6.398;2022-09-09T00:31:34;13.80;99.90
58951;DHT22;44730;53.158;6.398;2022-09-09T00:34:09;13.80;99.90
58951;DHT22;44730;53.158;6.398;2022-09-09T00:36:40;13.80;99.90
58951;DHT22;44730;53.158;6.398;2022-09-09T00:39:23;13.80;99.90
58951;DHT22;44730;53.158;6.398;2022-09-09T00:44:53;13.70;99.90
58951;DHT22;44730;53.158;6.398;2022-09-09T00:47:46;13.70;99.90
58951;DHT22;44730;53.158;6.398;2022-09-09T00:50:34;13.70;99.90
58951;DHT22;44730;53.158;6.398;2022-09-09T00:56:16;13.70;99.90
58951;DHT22;44730;53.158;6.398;2022-09-09T00:59:23;13.60;99.90
58951;DHT22;44730;53.158;6.398;2022-09-09T01:01:51;13.60;99.90
58951;DHT22;44730;53.158;6.398;2022-09-09T01:04:28;13.60;99.90
58951;DHT22;44730;53.158;6.398;2022-09-09T01:07:07;13.50;99.90
58951;DHT22;44730;53.158;6.398;2022-09-09T01:12:26;13.50;99.90
58951;DHT22;44730;53.158;6.398;2022-09-09T01:15:22;13.50;99.90
58951;DHT22;44730;53.158;6.398;2022-09-09T01:28:31;13.50;99.90
58951;DHT22;44730;53.158;6.398;2022-09-09T01:30:58;13.40;99.90
58951;DHT22;44730;53.158;6.398;2022-09-09T01:33:25;13.40;99.90
58951;DHT22;44730;53.158;6.398;2022-09-09T01:35:57;13.40;99.90
58951;DHT22;44730;53.158;6.398;2022-09-09T01:38:29;13.40;99.90
58951;DHT22;44730;53.158;6.398;2022-09-09T01:40:55;13.40;99.90
58951;DHT22;44730;53.158;6.398;2022-09-09T01:43:22;13.40;99.90
58951;DHT22;44730;53.158;6.398;2022-09-09T01:45:51;13.40;99.90
58951;DHT22;44730;53.158;6.398;2022-09-09T01:48:19;13.40;99.90
58951;DHT22;44730;53.158;6.398;2022-09-09T01:50:46;13.40;99.90
58951;DHT22;44730;53.158;6.398;2022-09-09T01:53:13;13.40;99.90
58951;DHT22;44730;53.158;6.398;2022-09-09T01:55:45;13.40;99.90
58951;DHT22;44730;53.158;6.398;2022-09-09T01:58:44;13.40;99.90
58951;DHT22;44730;53.158;6.398;2022-09-09T02:03:59;13.50;99.90
58951;DHT22;44730;53.158;6.398;2022-09-09T02:06:36;13.50;99.90
58951;DHT22;44730;53.158;6.398;2022-09-09T02:09:07;13.60;99.90
58951;DHT22;44730;53.158;6.398;2022-09-09T02:11:36;13.60;99.90
58951;DHT22;44730;53.158;6.398;2022-09-09T02:14:12;13.60;99.90
58951;DHT22;44730;53.158;6.398;2022-09-09T02:16:42;13.60;99.90
58951;DHT22;44730;53.158;6.398;2022-09-09T02:19:24;13.70;99.90
58951;DHT22;44730;53.158;6.398;2022-09-09T02:21:54;13.70;99.90
58951;DHT22;44730;53.158;6.398;2022-09-09T02:24:21;13.70;99.90
58951;DHT22;44730;53.158;6.398;2022-09-09T02:26:50;13.70;99.90
58951;DHT22;44730;53.158;6.398;2022-09-09T02:29:21;13.70;99.90
58951;DHT22;44730;53.158;6.398;2022-09-09T02:31:50;13.80;99.90
58951;DHT22;44730;53.158;6.398;2022-09-09T02:34:19;13.80;99.90
58951;DHT22;44730;53.158;6.398;2022-09-09T02:36:49;13.80;99.90
58951;DHT22;44730;53.158;6.398;2022-09-09T02:39:16;13.80;99.90
58951;DHT22;44730;53.158;6.398;2022-09-09T02:41:47;13.80;99.90
58951;DHT22;44730;53.158;6.398;2022-09-09T02:44:17;13.80;99.90
58951;DHT22;44730;53.158;6.398;2022-09-09T02:50:15;13.90;99.90
58951;DHT22;44730;53.158;6.398;2022-09-09T02:55:47;13.90;99.90
58951;DHT22;44730;53.158;6.398;2022-09-09T02:58:16;13.90;99.90
58951;DHT22;44730;53.158;6.398;2022-09-09T03:00:45;13.90;99.90
58951;DHT22;44730;53.158;6.398;2022-09-09T03:03:12;13.90;99.90
58951;DHT22;44730;53.158;6.398;2022-09-09T03:05:38;13.90;99.90
58951;DHT22;44730;53.158;6.398;2022-09-09T03:08:04;13.90;99.90
58951;DHT22;44730;53.158;6.398;2022-09-09T03:10:31;14.00;99.90
58951;DHT22;44730;53.158;6.398;2022-09-09T03:12:57;14.00;99.90
58951;DHT22;44730;53.158;6.398;2022-09-09T03:15:23;14.00;99.90
58951;DHT22;44730;53.158;6.398;2022-09-09T03:17:50;14.00;99.90
58951;DHT22;44730;53.158;6.398;2022-09-09T03:20:16;14.00;99.90
58951;DHT22;44730;53.158;6.398;2022-09-09T03:22:42;14.00;99.90
58951;DHT22;44730;53.158;6.398;2022-09-09T03:25:09;14.00;99.90
58951;DHT22;44730;53.158;6.398;2022-09-09T03:27:36;14.00;99.90
58951;DHT22;44730;53.158;6.398;2022-09-09T03:30:02;14.00;99.90
58951;DHT22;44730;53.158;6.398;2022-09-09T03:32:29;14.00;99.90
58951;DHT22;44730;53.158;6.398;2022-09-09T03:34:54;14.00;99.90
58951;DHT22;44730;53.158;6.398;2022-09-09T03:37:20;14.00;99.90
58951;DHT22;44730;53.158;6.398;2022-09-09T03:39:46;14.00;99.90
58951;DHT22;44730;53.158;6.398;2022-09-09T03:42:15;14.00;99.90
58951;DHT22;44730;53.158;6.398;2022-09-09T03:44:45;14.00;99.90
58951;DHT22;44730;53.158;6.398;2022-09-09T03:47:16;14.00;99.90
58951;DHT22;44730;53.158;6.398;2022-09-09T03:49:42;14.10;99.90
58951;DHT22;44730;53.158;6.398;2022-09-09T03:52:09;14.00;99.90
58951;DHT22;44730;53.158;6.398;2022-09-09T03:54:35;14.10;99.90
58951;DHT22;44730;53.158;6.398;2022-09-09T03:57:01;14.10;99.90
58951;DHT22;44730;53.158;6.398;2022-09-09T03:59:27;14.10;99.90
58951;DHT22;44730;53.158;6.398;2022-09-09T04:01:54;14.10;99.90
58951;DHT22;44730;53.158;6.398;2022-09-09T04:04:20;14.10;99.90
58951;DHT22;44730;53.158;6.398;2022-09-09T04:06:46;14.10;99.90
58951;DHT22;44730;53.158;6.398;2022-09-09T04:09:14;14.10;99.90
58951;DHT22;44730;53.158;6.398;2022-09-09T04:11:40;14.10;99.90
58951;DHT22;44730;53.158;6.398;2022-09-09T04:14:06;14.10;99.90
58951;DHT22;44730;53.158;6.398;2022-09-09T04:16:33;14.10;99.90
58951;DHT22;44730;53.158;6.398;2022-09-09T04:18:59;14.20;99.90
58951;DHT22;44730;53.158;6.398;2022-09-09T04:21:25;14.20;99.90
58951;DHT22;44730;53.158;6.398;2022-09-09T04:23:51;14.20;99.90
58951;DHT22;44730;53.158;6.398;2022-09-09T04:26:17;14.20;99.90
58951;DHT22;44730;53.158;6.398;2022-09-09T04:28:43;14.20;99.90
58951;DHT22;44730;53.158;6.398;2022-09-09T04:31:37;14.20;99.90
58951;DHT22;44730;53.158;6.398;2022-09-09T04:34:08;14.20;99.90
58951;DHT22;44730;53.158;6.398;2022-09-09T04:36:34;14.20;99.90
58951;DHT22;44730;53.158;6.398;2022-09-09T04:39:00;14.20;99.90
58951;DHT22;44730;53.158;6.398;2022-09-09T04:41:27;14.20;99.90
58951;DHT22;44730;53.158;6.398;2022-09-09T04:43:53;14.30;99.90
58951;DHT22;44730;53.158;6.398;2022-09-09T04:46:20;14.20;99.90
58951;DHT22;44730;53.158;6.398;2022-09-09T04:48:48;14.30;99.90
58951;DHT22;44730;53.158;6.398;2022-09-09T04:51:16;14.20;99.90
58951;DHT22;44730;53.158;6.398;2022-09-09T04:53:42;14.30;99.90
58951;DHT22;44730;53.158;6.398;2022-09-09T04:56:13;14.20;99.90
58951;DHT22;44730;53.158;6.398;2022-09-09T04:58:40;14.30;99.90
58951;DHT22;44730;53.158;6.398;2022-09-09T05:01:13;14.30;99.90
58951;DHT22;44730;53.158;6.398;2022-09-09T05:03:39;14.30;99.90
58951;DHT22;44730;53.158;6.398;2022-09-09T05:06:10;14.30;99.90
58951;DHT22;44730;53.158;6.398;2022-09-09T05:08:43;14.20;99.90
58951;DHT22;44730;53.158;6.398;2022-09-09T05:11:22;14.30;99.90
58951;DHT22;44730;53.158;6.398;2022-09-09T05:13:50;14.20;99.90
58951;DHT22;44730;53.158;6.398;2022-09-09T05:16:16;14.20;99.90
58951;DHT22;44730;53.158;6.398;2022-09-09T05:18:42;14.30;99.90
58951;DHT22;44730;53.158;6.398;2022-09-09T05:21:09;14.30;99.90
58951;DHT22;44730;53.158;6.398;2022-09-09T05:23:36;14.30;99.90
58951;DHT22;44730;53.158;6.398;2022-09-09T05:26:03;14.30;99.90
58951;DHT22;44730;53.158;6.398;2022-09-09T05:28:29;14.30;99.90
58951;DHT22;44730;53.158;6.398;2022-09-09T05:31:00;14.30;99.90
58951;DHT22;44730;53.158;6.398;2022-09-09T05:33:26;14.30;99.90
58951;DHT22;44730;53.158;6.398;2022-09-09T05:36:01;14.30;99.90
58951;DHT22;44730;53.158;6.398;2022-09-09T05:38:29;14.30;99.90
58951;DHT22;44730;53.158;6.398;2022-09-09T05:40:55;14.30;99.90
58951;DHT22;44730;53.158;6.398;2022-09-09T05:43:23;14.30;99.90
58951;DHT22;44730;53.158;6.398;2022-09-09T05:45:59;14.30;99.90
58951;DHT22;44730;53.158;6.398;2022-09-09T05:48:28;14.30;99.90
58951;DHT22;44730;53.158;6.398;2022-09-09T05:50:55;14.40;99.90
58951;DHT22;44730;53.158;6.398;2022-09-09T05:53:20;14.40;99.90
58951;DHT22;44730;53.158;6.398;2022-09-09T05:55:46;14.40;99.90
58951;DHT22;44730;53.158;6.398;2022-09-09T05:58:13;14.40;99.90
58951;DHT22;44730;53.158;6.398;2022-09-09T06:00:40;14.40;99.90
58951;DHT22;44730;53.158;6.398;2022-09-09T06:03:05;14.40;99.90
58951;DHT22;44730;53.158;6.398;2022-09-09T06:05:31;14.50;99.90
58951;DHT22;44730;53.158;6.398;2022-09-09T06:07:57;14.50;99.90
58951;DHT22;44730;53.158;6.398;2022-09-09T06:10:24;14.50;99.90
58951;DHT22;44730;53.158;6.398;2022-09-09T06:12:52;14.60;99.90
58951;DHT22;44730;53.158;6.398;2022-09-09T06:15:18;14.60;99.90
58951;DHT22;44730;53.158;6.398;2022-09-09T06:17:44;14.60;99.90
58951;DHT22;44730;53.158;6.398;2022-09-09T06:20:11;14.70;99.90
58951;DHT22;44730;53.158;6.398;2022-09-09T06:22:40;14.70;99.90
58951;DHT22;44730;53.158;6.398;2022-09-09T06:25:08;14.70;99.90
58951;DHT22;44730;53.158;6.398;2022-09-09T06:27:35;14.70;99.90
58951;DHT22;44730;53.158;6.398;2022-09-09T06:30:01;14.80;99.90
58951;DHT22;44730;53.158;6.398;2022-09-09T06:32:28;14.90;99.90
58951;DHT22;44730;53.158;6.398;2022-09-09T06:34:54;15.00;99.90
58951;DHT22;44730;53.158;6.398;2022-09-09T06:37:19;15.00;99.90
58951;DHT22;44730;53.158;6.398;2022-09-09T06:39:46;15.20;99.90
58951;DHT22;44730;53.158;6.398;2022-09-09T06:42:12;15.30;99.90
58951;DHT22;44730;53.158;6.398;2022-09-09T06:44:37;15.30;99.90
58951;DHT22;44730;53.158;6.398;2022-09-09T06:47:03;15.40;99.90
58951;DHT22;44730;53.158;6.398;2022-09-09T06:49:29;15.30;99.90
58951;DHT22;44730;53.158;6.398;2022-09-09T06:51:55;15.40;99.90
58951;DHT22;44730;53.158;6.398;2022-09-09T06:54:20;15.40;99.90
58951;DHT22;44730;53.158;6.398;2022-09-09T06:56:47;15.40;99.90
58951;DHT22;44730;53.158;6.398;2022-09-09T06:59:18;15.40;99.90
58951;DHT22;44730;53.158;6.398;2022-09-09T07:01:44;15.40;99.90
58951;DHT22;44730;53.158;6.398;2022-09-09T07:04:11;15.30;99.90
58951;DHT22;44730;53.158;6.398;2022-09-09T07:06:41;15.40;99.90
58951;DHT22;44730;53.158;6.398;2022-09-09T07:09:10;15.40;99.90
58951;DHT22;44730;53.158;6.398;2022-09-09T07:11:42;15.40;99.90
58951;DHT22;44730;53.158;6.398;2022-09-09T07:14:09;15.40;99.90
58951;DHT22;44730;53.158;6.398;2022-09-09T07:16:38;15.40;99.90
58951;DHT22;44730;53.158;6.398;2022-09-09T07:19:05;15.50;99.90
58951;DHT22;44730;53.158;6.398;2022-09-09T07:21:32;15.50;99.90
58951;DHT22;44730;53.158;6.398;2022-09-09T07:23:58;15.60;99.90
58951;DHT22;44730;53.158;6.398;2022-09-09T07:26:27;15.70;99.90
58951;DHT22;44730;53.158;6.398;2022-09-09T07:28:54;15.70;99.90
58951;DHT22;44730;53.158;6.398;2022-09-09T07:33:50;15.80;99.90
58951;DHT22;44730;53.158;6.398;2022-09-09T07:36:29;16.00;99.90
58951;DHT22;44730;53.158;6.398;2022-09-09T07:39:00;16.10;99.90
58951;DHT22;44730;53.158;6.398;2022-09-09T07:41:29;16.20;99.90
58951;DHT22;44730;53.158;6.398;2022-09-09T07:43:56;16.40;99.90
58951;DHT22;44730;53.158;6.398;2022-09-09T07:46:24;16.70;99.90
58951;DHT22;44730;53.158;6.398;2022-09-09T07:48:53;17.10;99.90
58951;DHT22;44730;53.158;6.398;2022-09-09T07:51:25;17.30;99.90
58951;DHT22;44730;53.158;6.398;2022-09-09T07:53:53;17.50;99.90
58951;DHT22;44730;53.158;6.398;2022-09-09T07:56:20;17.40;99.90
58951;DHT22;44730;53.158;6.398;2022-09-09T07:58:49;17.40;99.90
58951;DHT22;44730;53.158;6.398;2022-09-09T08:01:21;17.40;99.90
58951;DHT22;44730;53.158;6.398;2022-09-09T08:03:56;17.40;99.90
58951;DHT22;44730;53.158;6.398;2022-09-09T08:06:25;17.50;99.90
58951;DHT22;44730;53.158;6.398;2022-09-09T08:08:53;17.50;99.90
58951;DHT22;44730;53.158;6.398;2022-09-09T08:11:22;17.50;99.90
58951;DHT22;44730;53.158;6.398;2022-09-09T08:13:50;17.60;99.90
58951;DHT22;44730;53.158;6.398;2022-09-09T08:16:20;17.60;99.90
58951;DHT22;44730;53.158;6.398;2022-09-09T08:18:49;17.70;99.90
58951;DHT22;44730;53.158;6.398;2022-09-09T08:21:21;17.70;99.90
58951;DHT22;44730;53.158;6.398;2022-09-09T08:23:47;17.70;99.90
58951;DHT22;44730;53.158;6.398;2022-09-09T08:26:19;17.80;99.90
58951;DHT22;44730;53.158;6.398;2022-09-09T08:28:53;17.90;99.90
58951;DHT22;44730;53.158;6.398;2022-09-09T08:31:31;18.20;99.90
58951;DHT22;44730;53.158;6.398;2022-09-09T08:34:03;18.40;99.90
58951;DHT22;44730;53.158;6.398;2022-09-09T08:36:32;18.60;99.90
58951;DHT22;44730;53.158;6.398;2022-09-09T08:39:02;18.80;99.90
58951;DHT22;44730;53.158;6.398;2022-09-09T08:52:36;19.30;99.90
58951;DHT22;44730;53.158;6.398;2022-09-09T08:55:31;19.70;99.90
58951;DHT22;44730;53.158;6.398;2022-09-09T08:58:02;19.80;99.90
58951;DHT22;44730;53.158;6.398;2022-09-09T09:03:23;20.80;99.90
58951;DHT22;44730;53.158;6.398;2022-09-09T09:09:21;21.40;99.90
58951;DHT22;44730;53.158;6.398;2022-09-09T09:11:56;22.00;99.90
58951;DHT22;44730;53.158;6.398;2022-09-09T09:14:30;22.60;99.90
58951;DHT22;44730;53.158;6.398;2022-09-09T09:17:12;22.80;99.90
58951;DHT22;44730;53.158;6.398;2022-09-09T09:19:41;23.10;99.90
58951;DHT22;44730;53.158;6.398;2022-09-09T09:22:22;22.70;99.90
58951;DHT22;44730;53.158;6.398;2022-09-09T09:28:00;22.50;99.90
58951;DHT22;44730;53.158;6.398;2022-09-09T09:30:36;22.20;99.90
58951;DHT22;44730;53.158;6.398;2022-09-09T09:35:45;22.00;99.90
58951;DHT22;44730;53.158;6.398;2022-09-09T09:38:19;22.00;99.90
58951;DHT22;44730;53.158;6.398;2022-09-09T09:41:03;22.10;99.90
58951;DHT22;44730;53.158;6.398;2022-09-09T09:43:37;22.40;99.90
58951;DHT22;44730;53.158;6.398;2022-09-09T09:46:05;22.60;99.90
58951;DHT22;44730;53.158;6.398;2022-09-09T09:48:44;22.50;99.90
58951;DHT22;44730;53.158;6.398;2022-09-09T09:51:16;22.00;99.90
58951;DHT22;44730;53.158;6.398;2022-09-09T09:53:43;21.80;99.90
58951;DHT22;44730;53.158;6.398;2022-09-09T09:56:11;21.50;99.90
58951;DHT22;44730;53.158;6.398;2022-09-09T10:01:22;20.90;99.90
58951;DHT22;44730;53.158;6.398;2022-09-09T10:03:55;20.60;99.90
58951;DHT22;44730;53.158;6.398;2022-09-09T10:06:36;20.60;99.90
58951;DHT22;44730;53.158;6.398;2022-09-09T10:09:27;20.40;99.90
58951;DHT22;44730;53.158;6.398;2022-09-09T10:25:58;20.10;99.90
58951;DHT22;44730;53.158;6.398;2022-09-09T10:31:29;20.60;99.90
58951;DHT22;44730;53.158;6.398;2022-09-09T10:36:46;20.60;99.90
58951;DHT22;44730;53.158;6.398;2022-09-09T10:41:53;21.50;99.90
58951;DHT22;44730;53.158;6.398;2022-09-09T10:47:43;21.80;99.90
58951;DHT22;44730;53.158;6.398;2022-09-09T10:50:29;21.90;99.90
58951;DHT22;44730;53.158;6.398;2022-09-09T10:55:57;22.30;99.90
58951;DHT22;44730;53.158;6.398;2022-09-09T10:59:00;22.80;99.90
58951;DHT22;44730;53.158;6.398;2022-09-09T11:01:32;23.40;99.90
58951;DHT22;44730;53.158;6.398;2022-09-09T11:04:10;24.30;99.90
58951;DHT22;44730;53.158;6.398;2022-09-09T11:06:41;24.20;99.90
58951;DHT22;44730;53.158;6.398;2022-09-09T11:09:16;23.90;99.90
58951;DHT22;44730;53.158;6.398;2022-09-09T11:11:52;24.20;99.90
58951;DHT22;44730;53.158;6.398;2022-09-09T11:14:32;24.60;99.90
58951;DHT22;44730;53.158;6.398;2022-09-09T11:17:03;25.60;99.90
58951;DHT22;44730;53.158;6.398;2022-09-09T11:19:39;25.30;99.90
58951;DHT22;44730;53.158;6.398;2022-09-09T11:34:35;24.70;99.90
58951;DHT22;44730;53.158;6.398;2022-09-09T11:42:19;24.40;99.90
58951;DHT22;44730;53.158;6.398;2022-09-09T11:44:46;24.10;99.90
58951;DHT22;44730;53.158;6.398;2022-09-09T11:49:47;23.30;99.90
58951;DHT22;44730;53.158;6.398;2022-09-09T11:58:06;24.10;99.90
58951;DHT22;44730;53.158;6.398;2022-09-09T12:00:42;23.80;99.90
58951;DHT22;44730;53.158;6.398;2022-09-09T12:03:39;23.60;99.90
58951;DHT22;44730;53.158;6.398;2022-09-09T12:08:41;23.50;99.90
58951;DHT22;44730;53.158;6.398;2022-09-09T12:11:07;23.70;99.90
58951;DHT22;44730;53.158;6.398;2022-09-09T12:13:34;23.60;99.90
58951;DHT22;44730;53.158;6.398;2022-09-09T12:16:02;23.30;99.90
58951;DHT22;44730;53.158;6.398;2022-09-09T12:18:39;23.30;99.90
58951;DHT22;44730;53.158;6.398;2022-09-09T12:22:02;23.70;99.90
58951;DHT22;44730;53.158;6.398;2022-09-09T12:24:10;23.40;99.90
58951;DHT22;44730;53.158;6.398;2022-09-09T12:32:10;22.70;99.90
58951;DHT22;44730;53.158;6.398;2022-09-09T12:37:12;24.10;99.90
58951;DHT22;44730;53.158;6.398;2022-09-09T12:39:55;25.80;99.90
58951;DHT22;44730;53.158;6.398;2022-09-09T12:42:23;26.00;99.90
58951;DHT22;44730;53.158;6.398;2022-09-09T12:45:03;25.60;99.90
58951;DHT22;44730;53.158;6.398;2022-09-09T12:47:48;25.90;99.90
58951;DHT22;44730;53.158;6.398;2022-09-09T12:50:30;26.70;99.90
58951;DHT22;44730;53.158;6.398;2022-09-09T12:53:24;27.70;98.10
58951;DHT22;44730;53.158;6.398;2022-09-09T12:56:04;28.50;96.00
58951;DHT22;44730;53.158;6.398;2022-09-09T12:58:35;27.70;95.60
58951;DHT22;44730;53.158;6.398;2022-09-09T13:01:03;27.40;97.00
58951;DHT22;44730;53.158;6.398;2022-09-09T13:03:42;26.80;97.10
58951;DHT22;44730;53.158;6.398;2022-09-09T13:06:13;26.20;97.30
58951;DHT22;44730;53.158;6.398;2022-09-09T13:08:44;26.10;99.10
58951;DHT22;44730;53.158;6.398;2022-09-09T13:11:13;26.80;98.30
58951;DHT22;44730;53.158;6.398;2022-09-09T13:13:42;26.80;97.60
58951;DHT22;44730;53.158;6.398;2022-09-09T13:16:28;26.40;98.00
58951;DHT22;44730;53.158;6.398;2022-09-09T13:18:59;26.00;97.50
58951;DHT22;44730;53.158;6.398;2022-09-09T13:21:37;26.80;98.30
58951;DHT22;44730;53.158;6.398;2022-09-09T13:24:05;26.80;95.90
58951;DHT22;44730;53.158;6.398;2022-09-09T13:26:34;26.40;97.40
58951;DHT22;44730;53.158;6.398;2022-09-09T13:29:17;26.00;97.90
58951;DHT22;44730;53.158;6.398;2022-09-09T13:31:44;25.30;97.50
58951;DHT22;44730;53.158;6.398;2022-09-09T13:34:35;24.70;99.30
58951;DHT22;44730;53.158;6.398;2022-09-09T13:37:03;24.30;99.90
58951;DHT22;44730;53.158;6.398;2022-09-09T13:39:40;23.90;99.90
58951;DHT22;44730;53.158;6.398;2022-09-09T13:42:24;23.40;99.90
58951;DHT22;44730;53.158;6.398;2022-09-09T13:44:51;22.80;99.90
58951;DHT22;44730;53.158;6.398;2022-09-09T13:47:33;22.40;99.90
58951;DHT22;44730;53.158;6.398;2022-09-09T13:52:47;24.20;99.90
58951;DHT22;44730;53.158;6.398;2022-09-09T13:55:15;25.40;99.90
58951;DHT22;44730;53.158;6.398;2022-09-09T13:57:54;26.20;99.90
58951;DHT22;44730;53.158;6.398;2022-09-09T14:00:20;27.10;99.50
58951;DHT22;44730;53.158;6.398;2022-09-09T14:02:48;27.30;99.30
58951;DHT22;44730;53.158;6.398;2022-09-09T14:05:15;27.10;98.60
58951;DHT22;44730;53.158;6.398;2022-09-09T14:07:42;26.40;98.30
58951;DHT22;44730;53.158;6.398;2022-09-09T14:10:09;25.50;99.10
58951;DHT22;44730;53.158;6.398;2022-09-09T14:12:35;24.60;99.90
58951;DHT22;44730;53.158;6.398;2022-09-09T14:15:05;23.80;99.90
58951;DHT22;44730;53.158;6.398;2022-09-09T14:17:33;23.20;99.90
58951;DHT22;44730;53.158;6.398;2022-09-09T14:20:03;22.80;99.90
58951;DHT22;44730;53.158;6.398;2022-09-09T14:22:31;22.30;99.90
58951;DHT22;44730;53.158;6.398;2022-09-09T14:24:56;21.90;99.90
58951;DHT22;44730;53.158;6.398;2022-09-09T14:27:23;21.60;99.90
58951;DHT22;44730;53.158;6.398;2022-09-09T14:29:48;21.30;99.90
58951;DHT22;44730;53.158;6.398;2022-09-09T14:32:15;21.00;99.90
58951;DHT22;44730;53.158;6.398;2022-09-09T14:34:41;20.70;99.90
58951;DHT22;44730;53.158;6.398;2022-09-09T14:37:07;20.40;99.90
58951;DHT22;44730;53.158;6.398;2022-09-09T14:39:32;20.20;99.90
58951;DHT22;44730;53.158;6.398;2022-09-09T14:41:59;20.10;99.90
58951;DHT22;44730;53.158;6.398;2022-09-09T14:44:24;20.00;99.90
58951;DHT22;44730;53.158;6.398;2022-09-09T14:46:50;20.10;99.90
58951;DHT22;44730;53.158;6.398;2022-09-09T14:49:16;20.10;99.90
58951;DHT22;44730;53.158;6.398;2022-09-09T14:51:42;20.70;99.90
58951;DHT22;44730;53.158;6.398;2022-09-09T14:54:08;22.00;99.90
58951;DHT22;44730;53.158;6.398;2022-09-09T14:56:38;23.60;99.90
58951;DHT22;44730;53.158;6.398;2022-09-09T14:59:04;25.00;99.90
58951;DHT22;44730;53.158;6.398;2022-09-09T15:01:34;26.00;99.90
58951;DHT22;44730;53.158;6.398;2022-09-09T15:04:02;26.90;99.90
58951;DHT22;44730;53.158;6.398;2022-09-09T15:06:30;27.80;99.30
58951;DHT22;44730;53.158;6.398;2022-09-09T15:08:58;27.30;97.40
58951;DHT22;44730;53.158;6.398;2022-09-09T15:11:27;26.40;99.20
58951;DHT22;44730;53.158;6.398;2022-09-09T15:13:53;26.20;98.20
58951;DHT22;44730;53.158;6.398;2022-09-09T15:16:23;25.40;99.90
58951;DHT22;44730;53.158;6.398;2022-09-09T15:18:52;25.40;99.90
58951;DHT22;44730;53.158;6.398;2022-09-09T15:21:21;25.20;99.90
58951;DHT22;44730;53.158;6.398;2022-09-09T15:23:48;24.70;99.90
58951;DHT22;44730;53.158;6.398;2022-09-09T15:26:15;24.50;99.90
58951;DHT22;44730;53.158;6.398;2022-09-09T15:28:43;24.60;99.90
58951;DHT22;44730;53.158;6.398;2022-09-09T15:31:21;24.40;99.90
58951;DHT22;44730;53.158;6.398;2022-09-09T15:33:57;24.00;99.90
58951;DHT22;44730;53.158;6.398;2022-09-09T15:38:56;22.80;99.90
58951;DHT22;44730;53.158;6.398;2022-09-09T15:41:23;22.20;99.90
58951;DHT22;44730;53.158;6.398;2022-09-09T15:43:50;21.80;99.90
58951;DHT22;44730;53.158;6.398;2022-09-09T15:46:22;21.40;99.90
58951;DHT22;44730;53.158;6.398;2022-09-09T15:48:49;21.10;99.90
58951;DHT22;44730;53.158;6.398;2022-09-09T15:51:16;20.90;99.90
58951;DHT22;44730;53.158;6.398;2022-09-09T15:53:42;20.70;99.90
58951;DHT22;44730;53.158;6.398;2022-09-09T15:56:09;20.70;99.90
58951;DHT22;44730;53.158;6.398;2022-09-09T15:58:35;20.50;99.90
58951;DHT22;44730;53.158;6.398;2022-09-09T16:01:09;20.30;99.90
58951;DHT22;44730;53.158;6.398;2022-09-09T16:03:36;20.10;99.90
58951;DHT22;44730;53.158;6.398;2022-09-09T16:06:03;19.90;99.90
58951;DHT22;44730;53.158;6.398;2022-09-09T16:08:41;19.70;99.90
58951;DHT22;44730;53.158;6.398;2022-09-09T16:11:07;19.50;99.90
58951;DHT22;44730;53.158;6.398;2022-09-09T16:13:35;19.20;99.90
58951;DHT22;44730;53.158;6.398;2022-09-09T16:16:03;19.10;99.90
58951;DHT22;44730;53.158;6.398;2022-09-09T16:18:41;19.00;99.90
58951;DHT22;44730;53.158;6.398;2022-09-09T16:21:08;18.90;99.90
58951;DHT22;44730;53.158;6.398;2022-09-09T16:23:36;18.80;99.90
58951;DHT22;44730;53.158;6.398;2022-09-09T16:26:02;18.80;99.90
58951;DHT22;44730;53.158;6.398;2022-09-09T16:28:28;18.70;99.90
58951;DHT22;44730;53.158;6.398;2022-09-09T16:30:56;18.70;99.90
58951;DHT22;44730;53.158;6.398;2022-09-09T16:33:23;18.70;99.90
58951;DHT22;44730;53.158;6.398;2022-09-09T16:35:49;18.70;99.90
58951;DHT22;44730;53.158;6.398;2022-09-09T16:38:15;18.60;99.90
58951;DHT22;44730;53.158;6.398;2022-09-09T16:40:42;18.60;99.90
58951;DHT22;44730;53.158;6.398;2022-09-09T16:43:09;18.60;99.90
58951;DHT22;44730;53.158;6.398;2022-09-09T16:45:44;18.60;99.90
58951;DHT22;44730;53.158;6.398;2022-09-09T16:48:11;18.60;99.90
58951;DHT22;44730;53.158;6.398;2022-09-09T16:50:37;18.60;99.90
58951;DHT22;44730;53.158;6.398;2022-09-09T16:53:05;18.50;99.90
58951;DHT22;44730;53.158;6.398;2022-09-09T16:55:39;18.40;99.90
58951;DHT22;44730;53.158;6.398;2022-09-09T16:58:05;18.40;99.90
58951;DHT22;44730;53.158;6.398;2022-09-09T17:00:31;18.30;99.90
58951;DHT22;44730;53.158;6.398;2022-09-09T17:02:56;18.30;99.90
58951;DHT22;44730;53.158;6.398;2022-09-09T17:05:22;18.20;99.90
58951;DHT22;44730;53.158;6.398;2022-09-09T17:07:48;18.10;99.90
58951;DHT22;44730;53.158;6.398;2022-09-09T17:10:14;18.00;99.90
58951;DHT22;44730;53.158;6.398;2022-09-09T17:12:40;18.00;99.90
58951;DHT22;44730;53.158;6.398;2022-09-09T17:15:07;18.00;99.90
58951;DHT22;44730;53.158;6.398;2022-09-09T17:17:34;17.90;99.90
58951;DHT22;44730;53.158;6.398;2022-09-09T17:20:00;17.90;99.90
58951;DHT22;44730;53.158;6.398;2022-09-09T17:22:27;17.90;99.90
58951;DHT22;44730;53.158;6.398;2022-09-09T17:24:54;17.90;99.90
58951;DHT22;44730;53.158;6.398;2022-09-09T17:27:20;17.80;99.90
58951;DHT22;44730;53.158;6.398;2022-09-09T17:29:46;17.80;99.90
58951;DHT22;44730;53.158;6.398;2022-09-09T17:32:12;17.80;99.90
58951;DHT22;44730;53.158;6.398;2022-09-09T17:34:38;17.80;99.90
58951;DHT22;44730;53.158;6.398;2022-09-09T17:37:05;17.80;99.90
58951;DHT22;44730;53.158;6.398;2022-09-09T17:39:32;17.70;99.90
58951;DHT22;44730;53.158;6.398;2022-09-09T17:41:58;17.70;99.90
58951;DHT22;44730;53.158;6.398;2022-09-09T17:44:23;17.70;99.90
58951;DHT22;44730;53.158;6.398;2022-09-09T17:46:49;17.70;99.90
58951;DHT22;44730;53.158;6.398;2022-09-09T17:49:16;17.70;99.90
58951;DHT22;44730;53.158;6.398;2022-09-09T17:51:43;17.70;99.90
58951;DHT22;44730;53.158;6.398;2022-09-09T17:54:15;17.60;99.90
58951;DHT22;44730;53.158;6.398;2022-09-09T17:56:44;17.60;99.90
58951;DHT22;44730;53.158;6.398;2022-09-09T17:59:12;17.60;99.90
58951;DHT22;44730;53.158;6.398;2022-09-09T18:01:40;17.60;99.90